sensor_id;sensor_type;location;lat;lon;timestamp;P1;durP1;ratioP1;P2;durP2;ratioP2
8219;SDS011;4151;51.110;7.020;2023-05-10T00:00:50;34.17;;;13.00;;
8219;SDS011;4151;51.110;7.020;2023-05-10T00:03:16;28.90;;;13.10;;
8219;SDS011;4151;51.110;7.020;2023-05-10T00:05:42;31.77;;;12.53;;
8219;SDS011;4151;51.110;7.020;2023-05-10T00:08:07;33.40;;;12.83;;
8219;SDS011;4151;51.110;7.020;2023-05-10T00:10:33;35.93;;;12.57;;
8219;SDS011;4151;51.110;7.020;2023-05-10T00:12:58;35.83;;;13.50;;
8219;SDS011;4151;51.110;7.020;2023-05-10T00:15:24;34.93;;;12.30;;
8219;SDS011;4151;51.110;7.020;2023-05-10T00:17:50;44.27;;;12.60;;
8219;SDS011;4151;51.110;7.020;2023-05-10T00:20:16;35.00;;;13.30;;
8219;SDS011;4151;51.110;7.020;2023-05-10T00:22:41;40.20;;;13.83;;
8219;SDS011;4151;51.110;7.020;2023-05-10T00:25:07;42.97;;;14.50;;
8219;SDS011;4151;51.110;7.020;2023-05-10T00:27:33;39.67;;;14.10;;
8219;SDS011;4151;51.110;7.020;2023-05-10T00:29:59;35.53;;;13.87;;
8219;SDS011;4151;51.110;7.020;2023-05-10T00:32:24;40.63;;;14.57;;
8219;SDS011;4151;51.110;7.020;2023-05-10T00:34:50;48.17;;;15.20;;
8219;SDS011;4151;51.110;7.020;2023-05-10T00:37:15;51.13;;;14.20;;
8219;SDS011;4151;51.110;7.020;2023-05-10T00:39:41;43.67;;;14.10;;
8219;SDS011;4151;51.110;7.020;2023-05-10T00:42:06;42.73;;;13.60;;
8219;SDS011;4151;51.110;7.020;2023-05-10T00:44:32;43.70;;;15.77;;
8219;SDS011;4151;51.110;7.020;2023-05-10T00:46:57;52.27;;;17.23;;
8219;SDS011;4151;51.110;7.020;2023-05-10T00:49:24;50.20;;;16.93;;
8219;SDS011;4151;51.110;7.020;2023-05-10T00:51:50;48.20;;;15.23;;
8219;SDS011;4151;51.110;7.020;2023-05-10T00:54:16;46.23;;;17.10;;
8219;SDS011;4151;51.110;7.020;2023-05-10T00:56:41;41.17;;;14.03;;
8219;SDS011;4151;51.110;7.020;2023-05-10T00:59:13;44.37;;;15.50;;
8219;SDS011;4151;51.110;7.020;2023-05-10T01:01:39;42.70;;;15.27;;
8219;SDS011;4151;51.110;7.020;2023-05-10T01:04:05;46.67;;;15.90;;
8219;SDS011;4151;51.110;7.020;2023-05-10T01:06:31;48.77;;;15.40;;
8219;SDS011;4151;51.110;7.020;2023-05-10T01:08:57;55.80;;;15.13;;
8219;SDS011;4151;51.110;7.020;2023-05-10T01:11:22;48.43;;;15.53;;
8219;SDS011;4151;51.110;7.020;2023-05-10T01:13:50;46.97;;;15.07;;
8219;SDS011;4151;51.110;7.020;2023-05-10T01:16:21;49.70;;;17.43;;
8219;SDS011;4151;51.110;7.020;2023-05-10T01:18:47;51.70;;;17.07;;
8219;SDS011;4151;51.110;7.020;2023-05-10T01:32:20;46.77;;;15.73;;
8219;SDS011;4151;51.110;7.020;2023-05-10T01:38:04;46.70;;;15.40;;
8219;SDS011;4151;51.110;7.020;2023-05-10T01:40:55;47.33;;;15.30;;
8219;SDS011;4151;51.110;7.020;2023-05-10T01:43:37;51.40;;;15.30;;
8219;SDS011;4151;51.110;7.020;2023-05-10T01:46:17;53.00;;;16.57;;
8219;SDS011;4151;51.110;7.020;2023-05-10T01:48:52;48.67;;;15.87;;
8219;SDS011;4151;51.110;7.020;2023-05-10T01:51:22;37.13;;;15.63;;
8219;SDS011;4151;51.110;7.020;2023-05-10T01:53:50;37.13;;;14.60;;
8219;SDS011;4151;51.110;7.020;2023-05-10T01:56:19;46.53;;;15.30;;
8219;SDS011;4151;51.110;7.020;2023-05-10T01:58:48;37.10;;;14.27;;
8219;SDS011;4151;51.110;7.020;2023-05-10T02:01:16;45.80;;;15.10;;
8219;SDS011;4151;51.110;7.020;2023-05-10T02:03:45;39.70;;;14.03;;
8219;SDS011;4151;51.110;7.020;2023-05-10T02:06:12;34.33;;;13.13;;
8219;SDS011;4151;51.110;7.020;2023-05-10T02:08:39;35.57;;;12.90;;
8219;SDS011;4151;51.110;7.020;2023-05-10T02:11:06;29.97;;;12.27;;
8219;SDS011;4151;51.110;7.020;2023-05-10T02:13:32;22.47;;;9.77;;
8219;SDS011;4151;51.110;7.020;2023-05-10T02:16:01;29.00;;;9.90;;
8219;SDS011;4151;51.110;7.020;2023-05-10T02:18:28;24.90;;;9.50;;
8219;SDS011;4151;51.110;7.020;2023-05-10T02:20:55;24.60;;;8.90;;
8219;SDS011;4151;51.110;7.020;2023-05-10T02:23:21;23.47;;;9.30;;
8219;SDS011;4151;51.110;7.020;2023-05-10T02:25:48;19.67;;;8.73;;
8219;SDS011;4151;51.110;7.020;2023-05-10T02:28:14;26.43;;;9.70;;
8219;SDS011;4151;51.110;7.020;2023-05-10T02:30:41;23.50;;;9.93;;
8219;SDS011;4151;51.110;7.020;2023-05-10T02:33:07;22.43;;;8.93;;
8219;SDS011;4151;51.110;7.020;2023-05-10T02:35:33;23.80;;;9.80;;
8219;SDS011;4151;51.110;7.020;2023-05-10T02:38:00;25.07;;;9.87;;
8219;SDS011;4151;51.110;7.020;2023-05-10T02:40:27;22.63;;;9.60;;
8219;SDS011;4151;51.110;7.020;2023-05-10T02:42:54;27.20;;;9.93;;
8219;SDS011;4151;51.110;7.020;2023-05-10T02:45:21;26.90;;;10.00;;
8219;SDS011;4151;51.110;7.020;2023-05-10T02:47:51;27.90;;;10.37;;
8219;SDS011;4151;51.110;7.020;2023-05-10T02:50:17;32.43;;;12.13;;
8219;SDS011;4151;51.110;7.020;2023-05-10T02:52:47;27.00;;;11.10;;
8219;SDS011;4151;51.110;7.020;2023-05-10T02:55:16;37.00;;;11.10;;
8219;SDS011;4151;51.110;7.020;2023-05-10T02:57:48;25.60;;;10.70;;
8219;SDS011;4151;51.110;7.020;2023-05-10T03:00:17;32.97;;;13.00;;
8219;SDS011;4151;51.110;7.020;2023-05-10T03:02:43;32.03;;;12.13;;
8219;SDS011;4151;51.110;7.020;2023-05-10T03:05:08;27.20;;;11.60;;
8219;SDS011;4151;51.110;7.020;2023-05-10T03:07:34;39.83;;;12.57;;
8219;SDS011;4151;51.110;7.020;2023-05-10T03:10:00;36.43;;;13.33;;
8219;SDS011;4151;51.110;7.020;2023-05-10T03:15:05;31.60;;;12.70;;
8219;SDS011;4151;51.110;7.020;2023-05-10T03:17:57;37.87;;;14.20;;
8219;SDS011;4151;51.110;7.020;2023-05-10T03:20:46;31.27;;;13.00;;
8219;SDS011;4151;51.110;7.020;2023-05-10T03:26:09;32.67;;;12.50;;
8219;SDS011;4151;51.110;7.020;2023-05-10T03:28:37;31.80;;;12.37;;
8219;SDS011;4151;51.110;7.020;2023-05-10T03:31:04;34.57;;;13.50;;
8219;SDS011;4151;51.110;7.020;2023-05-10T03:33:31;36.60;;;14.30;;
8219;SDS011;4151;51.110;7.020;2023-05-10T03:35:57;28.80;;;11.90;;
8219;SDS011;4151;51.110;7.020;2023-05-10T03:38:22;31.17;;;12.43;;
8219;SDS011;4151;51.110;7.020;2023-05-10T03:40:48;31.90;;;12.57;;
8219;SDS011;4151;51.110;7.020;2023-05-10T03:43:14;37.10;;;12.17;;
8219;SDS011;4151;51.110;7.020;2023-05-10T03:45:39;44.10;;;16.97;;
8219;SDS011;4151;51.110;7.020;2023-05-10T03:48:05;36.00;;;13.50;;
8219;SDS011;4151;51.110;7.020;2023-05-10T03:50:31;33.17;;;13.00;;
8219;SDS011;4151;51.110;7.020;2023-05-10T03:52:56;37.57;;;13.70;;
8219;SDS011;4151;51.110;7.020;2023-05-10T03:55:22;35.77;;;13.30;;
8219;SDS011;4151;51.110;7.020;2023-05-10T03:57:48;30.97;;;13.53;;
8219;SDS011;4151;51.110;7.020;2023-05-10T04:00:14;32.20;;;12.77;;
8219;SDS011;4151;51.110;7.020;2023-05-10T04:02:40;31.67;;;12.73;;
8219;SDS011;4151;51.110;7.020;2023-05-10T04:05:06;34.23;;;12.83;;
8219;SDS011;4151;51.110;7.020;2023-05-10T04:07:32;32.60;;;11.47;;
8219;SDS011;4151;51.110;7.020;2023-05-10T04:09:57;38.43;;;11.60;;
8219;SDS011;4151;51.110;7.020;2023-05-10T04:12:23;41.87;;;11.50;;
8219;SDS011;4151;51.110;7.020;2023-05-10T04:14:48;38.70;;;11.00;;
8219;SDS011;4151;51.110;7.020;2023-05-10T04:17:14;29.17;;;11.10;;
8219;SDS011;4151;51.110;7.020;2023-05-10T04:19:40;33.43;;;11.57;;
8219;SDS011;4151;51.110;7.020;2023-05-10T04:22:05;32.83;;;12.43;;
8219;SDS011;4151;51.110;7.020;2023-05-10T04:24:31;33.60;;;11.87;;
8219;SDS011;4151;51.110;7.020;2023-05-10T04:26:56;36.03;;;12.60;;
8219;SDS011;4151;51.110;7.020;2023-05-10T04:29:22;35.57;;;12.40;;
8219;SDS011;4151;51.110;7.020;2023-05-10T04:31:47;30.50;;;12.13;;
8219;SDS011;4151;51.110;7.020;2023-05-10T04:34:13;36.93;;;11.50;;
8219;SDS011;4151;51.110;7.020;2023-05-10T04:36:39;33.83;;;12.57;;
8219;SDS011;4151;51.110;7.020;2023-05-10T04:39:04;36.07;;;13.00;;
8219;SDS011;4151;51.110;7.020;2023-05-10T04:41:30;32.60;;;12.33;;
8219;SDS011;4151;51.110;7.020;2023-05-10T04:43:56;34.57;;;13.03;;
8219;SDS011;4151;51.110;7.020;2023-05-10T04:46:21;33.07;;;13.73;;
8219;SDS011;4151;51.110;7.020;2023-05-10T04:48:47;30.27;;;12.60;;
8219;SDS011;4151;51.110;7.020;2023-05-10T04:51:12;44.97;;;13.47;;
8219;SDS011;4151;51.110;7.020;2023-05-10T05:04:06;47.17;;;15.47;;
8219;SDS011;4151;51.110;7.020;2023-05-10T05:06:31;45.90;;;15.17;;
8219;SDS011;4151;51.110;7.020;2023-05-10T05:08:57;47.57;;;16.20;;
8219;SDS011;4151;51.110;7.020;2023-05-10T05:11:23;53.70;;;17.50;;
8219;SDS011;4151;51.110;7.020;2023-05-10T05:13:48;48.27;;;19.47;;
8219;SDS011;4151;51.110;7.020;2023-05-10T05:16:14;58.90;;;19.43;;
8219;SDS011;4151;51.110;7.020;2023-05-10T05:18:39;62.63;;;21.83;;
8219;SDS011;4151;51.110;7.020;2023-05-10T05:21:17;70.70;;;24.80;;
8219;SDS011;4151;51.110;7.020;2023-05-10T05:23:44;81.27;;;23.90;;
8219;SDS011;4151;51.110;7.020;2023-05-10T05:26:10;60.90;;;23.10;;
8219;SDS011;4151;51.110;7.020;2023-05-10T05:28:36;66.00;;;22.13;;
8219;SDS011;4151;51.110;7.020;2023-05-10T05:31:02;61.73;;;22.30;;
8219;SDS011;4151;51.110;7.020;2023-05-10T05:33:30;62.00;;;21.80;;
8219;SDS011;4151;51.110;7.020;2023-05-10T05:35:56;64.40;;;22.30;;
8219;SDS011;4151;51.110;7.020;2023-05-10T05:38:22;59.67;;;22.20;;
8219;SDS011;4151;51.110;7.020;2023-05-10T05:40:47;55.37;;;22.30;;
8219;SDS011;4151;51.110;7.020;2023-05-10T05:43:13;58.73;;;21.13;;
8219;SDS011;4151;51.110;7.020;2023-05-10T05:45:38;46.60;;;20.33;;
8219;SDS011;4151;51.110;7.020;2023-05-10T05:48:04;58.40;;;22.10;;
8219;SDS011;4151;51.110;7.020;2023-05-10T05:50:29;46.67;;;19.70;;
8219;SDS011;4151;51.110;7.020;2023-05-10T05:52:56;43.73;;;18.27;;
8219;SDS011;4151;51.110;7.020;2023-05-10T05:55:22;44.07;;;20.57;;
8219;SDS011;4151;51.110;7.020;2023-05-10T05:57:48;42.57;;;16.77;;
8219;SDS011;4151;51.110;7.020;2023-05-10T06:00:14;38.03;;;15.87;;
8219;SDS011;4151;51.110;7.020;2023-05-10T06:02:40;40.80;;;15.87;;
8219;SDS011;4151;51.110;7.020;2023-05-10T06:05:06;29.97;;;15.33;;
8219;SDS011;4151;51.110;7.020;2023-05-10T06:07:32;35.83;;;16.20;;
8219;SDS011;4151;51.110;7.020;2023-05-10T06:09:57;32.10;;;14.40;;
8219;SDS011;4151;51.110;7.020;2023-05-10T06:12:23;33.13;;;16.17;;
8219;SDS011;4151;51.110;7.020;2023-05-10T06:14:48;30.43;;;15.03;;
8219;SDS011;4151;51.110;7.020;2023-05-10T06:17:14;35.23;;;14.67;;
8219;SDS011;4151;51.110;7.020;2023-05-10T06:19:39;30.80;;;13.53;;
8219;SDS011;4151;51.110;7.020;2023-05-10T06:22:05;30.43;;;15.73;;
8219;SDS011;4151;51.110;7.020;2023-05-10T06:24:31;28.07;;;13.80;;
8219;SDS011;4151;51.110;7.020;2023-05-10T06:26:56;23.40;;;12.70;;
8219;SDS011;4151;51.110;7.020;2023-05-10T06:29:24;31.77;;;12.90;;
8219;SDS011;4151;51.110;7.020;2023-05-10T06:31:50;37.03;;;14.33;;
8219;SDS011;4151;51.110;7.020;2023-05-10T06:34:16;32.77;;;15.90;;
8219;SDS011;4151;51.110;7.020;2023-05-10T06:36:41;30.73;;;14.40;;
8219;SDS011;4151;51.110;7.020;2023-05-10T06:39:07;29.33;;;15.80;;
8219;SDS011;4151;51.110;7.020;2023-05-10T06:41:33;32.20;;;14.70;;
8219;SDS011;4151;51.110;7.020;2023-05-10T06:43:58;30.23;;;14.13;;
8219;SDS011;4151;51.110;7.020;2023-05-10T06:46:24;29.00;;;14.03;;
8219;SDS011;4151;51.110;7.020;2023-05-10T06:48:49;31.03;;;15.70;;
8219;SDS011;4151;51.110;7.020;2023-05-10T06:51:15;27.40;;;14.83;;
8219;SDS011;4151;51.110;7.020;2023-05-10T06:53:40;32.37;;;14.83;;
8219;SDS011;4151;51.110;7.020;2023-05-10T06:56:06;31.70;;;14.30;;
8219;SDS011;4151;51.110;7.020;2023-05-10T06:58:32;38.10;;;14.70;;
8219;SDS011;4151;51.110;7.020;2023-05-10T07:01:03;26.17;;;13.97;;
8219;SDS011;4151;51.110;7.020;2023-05-10T07:03:30;46.73;;;17.23;;
8219;SDS011;4151;51.110;7.020;2023-05-10T07:05:59;39.33;;;16.97;;
8219;SDS011;4151;51.110;7.020;2023-05-10T07:08:29;29.63;;;16.17;;
8219;SDS011;4151;51.110;7.020;2023-05-10T07:11:05;37.40;;;15.97;;
8219;SDS011;4151;51.110;7.020;2023-05-10T07:13:35;42.43;;;16.43;;
8219;SDS011;4151;51.110;7.020;2023-05-10T07:16:01;40.70;;;17.10;;
8219;SDS011;4151;51.110;7.020;2023-05-10T07:18:27;45.00;;;17.87;;
8219;SDS011;4151;51.110;7.020;2023-05-10T07:20:53;37.57;;;17.93;;
8219;SDS011;4151;51.110;7.020;2023-05-10T07:23:19;35.27;;;15.90;;
8219;SDS011;4151;51.110;7.020;2023-05-10T07:25:46;35.87;;;15.57;;
8219;SDS011;4151;51.110;7.020;2023-05-10T07:28:12;45.10;;;16.00;;
8219;SDS011;4151;51.110;7.020;2023-05-10T07:30:41;40.47;;;16.67;;
8219;SDS011;4151;51.110;7.020;2023-05-10T07:33:08;41.03;;;18.10;;
8219;SDS011;4151;51.110;7.020;2023-05-10T07:35:34;34.83;;;16.20;;
8219;SDS011;4151;51.110;7.020;2023-05-10T07:38:00;34.50;;;15.50;;
8219;SDS011;4151;51.110;7.020;2023-05-10T07:40:26;40.97;;;16.90;;
8219;SDS011;4151;51.110;7.020;2023-05-10T07:42:52;38.13;;;15.70;;
8219;SDS011;4151;51.110;7.020;2023-05-10T07:45:18;30.20;;;16.07;;
8219;SDS011;4151;51.110;7.020;2023-05-10T07:47:43;41.17;;;14.77;;
8219;SDS011;4151;51.110;7.020;2023-05-10T07:50:09;41.30;;;15.13;;
8219;SDS011;4151;51.110;7.020;2023-05-10T07:52:35;32.10;;;14.70;;
8219;SDS011;4151;51.110;7.020;2023-05-10T07:55:00;39.13;;;16.67;;
8219;SDS011;4151;51.110;7.020;2023-05-10T07:57:26;32.23;;;15.30;;
8219;SDS011;4151;51.110;7.020;2023-05-10T07:59:51;37.00;;;15.83;;
8219;SDS011;4151;51.110;7.020;2023-05-10T08:02:17;33.23;;;13.53;;
8219;SDS011;4151;51.110;7.020;2023-05-10T08:04:42;34.30;;;13.50;;
8219;SDS011;4151;51.110;7.020;2023-05-10T08:07:08;29.77;;;14.40;;
8219;SDS011;4151;51.110;7.020;2023-05-10T08:09:33;29.90;;;13.37;;
8219;SDS011;4151;51.110;7.020;2023-05-10T08:11:59;27.93;;;13.60;;
8219;SDS011;4151;51.110;7.020;2023-05-10T08:14:25;22.90;;;12.57;;
8219;SDS011;4151;51.110;7.020;2023-05-10T08:16:52;31.43;;;11.90;;
8219;SDS011;4151;51.110;7.020;2023-05-10T08:19:17;27.13;;;13.43;;
8219;SDS011;4151;51.110;7.020;2023-05-10T08:21:46;30.47;;;14.80;;
8219;SDS011;4151;51.110;7.020;2023-05-10T08:24:12;25.07;;;12.63;;
8219;SDS011;4151;51.110;7.020;2023-05-10T08:26:38;25.13;;;11.40;;
8219;SDS011;4151;51.110;7.020;2023-05-10T08:29:03;30.77;;;14.03;;
8219;SDS011;4151;51.110;7.020;2023-05-10T08:31:29;26.40;;;13.13;;
8219;SDS011;4151;51.110;7.020;2023-05-10T08:33:55;27.47;;;13.70;;
8219;SDS011;4151;51.110;7.020;2023-05-10T08:36:20;26.93;;;12.70;;
8219;SDS011;4151;51.110;7.020;2023-05-10T08:38:52;25.03;;;12.17;;
8219;SDS011;4151;51.110;7.020;2023-05-10T08:41:21;21.43;;;11.30;;
8219;SDS011;4151;51.110;7.020;2023-05-10T08:43:50;22.43;;;12.00;;
8219;SDS011;4151;51.110;7.020;2023-05-10T08:46:16;30.00;;;12.50;;
8219;SDS011;4151;51.110;7.020;2023-05-10T08:48:47;23.23;;;11.73;;
8219;SDS011;4151;51.110;7.020;2023-05-10T08:51:14;25.53;;;11.20;;
8219;SDS011;4151;51.110;7.020;2023-05-10T08:53:42;22.17;;;12.33;;
8219;SDS011;4151;51.110;7.020;2023-05-10T08:56:08;29.70;;;13.00;;
8219;SDS011;4151;51.110;7.020;2023-05-10T08:58:34;30.67;;;14.70;;
8219;SDS011;4151;51.110;7.020;2023-05-10T09:01:01;35.30;;;15.67;;
8219;SDS011;4151;51.110;7.020;2023-05-10T09:03:28;39.70;;;16.00;;
8219;SDS011;4151;51.110;7.020;2023-05-10T09:05:53;46.20;;;17.90;;
8219;SDS011;4151;51.110;7.020;2023-05-10T09:08:20;37.03;;;16.27;;
8219;SDS011;4151;51.110;7.020;2023-05-10T09:10:50;42.00;;;18.40;;
8219;SDS011;4151;51.110;7.020;2023-05-10T09:13:16;34.93;;;15.50;;
8219;SDS011;4151;51.110;7.020;2023-05-10T09:15:43;35.40;;;15.00;;
8219;SDS011;4151;51.110;7.020;2023-05-10T09:18:09;41.13;;;16.27;;
8219;SDS011;4151;51.110;7.020;2023-05-10T09:20:35;37.20;;;17.33;;
8219;SDS011;4151;51.110;7.020;2023-05-10T09:23:00;36.87;;;17.20;;
8219;SDS011;4151;51.110;7.020;2023-05-10T09:25:26;42.37;;;15.60;;
8219;SDS011;4151;51.110;7.020;2023-05-10T09:27:52;33.47;;;16.07;;
8219;SDS011;4151;51.110;7.020;2023-05-10T09:30:22;40.07;;;15.13;;
8219;SDS011;4151;51.110;7.020;2023-05-10T09:32:50;48.67;;;18.00;;
8219;SDS011;4151;51.110;7.020;2023-05-10T09:35:17;45.47;;;17.23;;
8219;SDS011;4151;51.110;7.020;2023-05-10T09:37:45;41.40;;;17.77;;
8219;SDS011;4151;51.110;7.020;2023-05-10T09:45:17;35.63;;;16.90;;
8219;SDS011;4151;51.110;7.020;2023-05-10T09:47:42;44.03;;;17.33;;
8219;SDS011;4151;51.110;7.020;2023-05-10T09:50:08;35.83;;;16.50;;
8219;SDS011;4151;51.110;7.020;2023-05-10T09:55:26;46.17;;;19.90;;
8219;SDS011;4151;51.110;7.020;2023-05-10T09:58:07;58.23;;;21.43;;
8219;SDS011;4151;51.110;7.020;2023-05-10T10:00:38;48.53;;;20.33;;
8219;SDS011;4151;51.110;7.020;2023-05-10T10:03:05;59.83;;;22.07;;
8219;SDS011;4151;51.110;7.020;2023-05-10T10:05:32;49.00;;;21.40;;
8219;SDS011;4151;51.110;7.020;2023-05-10T10:08:01;53.70;;;23.50;;
8219;SDS011;4151;51.110;7.020;2023-05-10T10:10:28;54.50;;;23.17;;
8219;SDS011;4151;51.110;7.020;2023-05-10T10:12:55;54.93;;;23.40;;
8219;SDS011;4151;51.110;7.020;2023-05-10T10:15:21;61.10;;;23.17;;
8219;SDS011;4151;51.110;7.020;2023-05-10T10:17:48;60.23;;;23.60;;
8219;SDS011;4151;51.110;7.020;2023-05-10T10:20:14;61.57;;;23.50;;
8219;SDS011;4151;51.110;7.020;2023-05-10T10:22:41;55.03;;;23.80;;
8219;SDS011;4151;51.110;7.020;2023-05-10T10:25:08;65.40;;;26.63;;
8219;SDS011;4151;51.110;7.020;2023-05-10T10:27:39;64.07;;;25.17;;
8219;SDS011;4151;51.110;7.020;2023-05-10T10:35:58;60.83;;;23.90;;
8219;SDS011;4151;51.110;7.020;2023-05-10T10:38:35;57.27;;;23.80;;
8219;SDS011;4151;51.110;7.020;2023-05-10T10:41:31;55.33;;;24.00;;
8219;SDS011;4151;51.110;7.020;2023-05-10T10:47:33;47.13;;;21.30;;
8219;SDS011;4151;51.110;7.020;2023-05-10T10:50:03;36.83;;;18.67;;
8219;SDS011;4151;51.110;7.020;2023-05-10T10:55:12;36.07;;;18.20;;
8219;SDS011;4151;51.110;7.020;2023-05-10T11:00:43;45.40;;;20.70;;
8219;SDS011;4151;51.110;7.020;2023-05-10T11:03:06;39.37;;;18.10;;
8219;SDS011;4151;51.110;7.020;2023-05-10T11:05:48;41.80;;;17.83;;
8219;SDS011;4151;51.110;7.020;2023-05-10T11:08:27;36.00;;;17.90;;
8219;SDS011;4151;51.110;7.020;2023-05-10T11:15:55;31.63;;;16.70;;
8219;SDS011;4151;51.110;7.020;2023-05-10T11:20:51;36.53;;;16.63;;
8219;SDS011;4151;51.110;7.020;2023-05-10T11:25:57;39.30;;;17.50;;
8219;SDS011;4151;51.110;7.020;2023-05-10T11:28:23;30.67;;;16.10;;
8219;SDS011;4151;51.110;7.020;2023-05-10T11:30:50;29.60;;;15.20;;
8219;SDS011;4151;51.110;7.020;2023-05-10T11:33:17;26.40;;;15.33;;
8219;SDS011;4151;51.110;7.020;2023-05-10T11:35:44;29.53;;;14.97;;
8219;SDS011;4151;51.110;7.020;2023-05-10T11:38:10;33.40;;;15.17;;
8219;SDS011;4151;51.110;7.020;2023-05-10T11:40:37;25.77;;;13.20;;
8219;SDS011;4151;51.110;7.020;2023-05-10T11:43:03;25.50;;;12.70;;
8219;SDS011;4151;51.110;7.020;2023-05-10T11:45:33;27.60;;;12.23;;
8219;SDS011;4151;51.110;7.020;2023-05-10T11:47:59;22.93;;;10.67;;
8219;SDS011;4151;51.110;7.020;2023-05-10T11:50:25;23.93;;;11.93;;
8219;SDS011;4151;51.110;7.020;2023-05-10T11:52:51;28.00;;;12.80;;
8219;SDS011;4151;51.110;7.020;2023-05-10T11:55:18;26.13;;;12.60;;
8219;SDS011;4151;51.110;7.020;2023-05-10T11:57:44;27.67;;;12.53;;
8219;SDS011;4151;51.110;7.020;2023-05-10T12:00:11;29.07;;;13.53;;
8219;SDS011;4151;51.110;7.020;2023-05-10T12:02:37;31.87;;;13.20;;
8219;SDS011;4151;51.110;7.020;2023-05-10T12:05:04;25.40;;;12.80;;
8219;SDS011;4151;51.110;7.020;2023-05-10T12:07:30;22.40;;;12.53;;
8219;SDS011;4151;51.110;7.020;2023-05-10T12:10:09;24.47;;;11.80;;
8219;SDS011;4151;51.110;7.020;2023-05-10T12:12:42;24.43;;;13.30;;
8219;SDS011;4151;51.110;7.020;2023-05-10T12:15:19;27.83;;;13.23;;
8219;SDS011;4151;51.110;7.020;2023-05-10T12:17:46;23.77;;;11.13;;
8219;SDS011;4151;51.110;7.020;2023-05-10T12:20:19;23.97;;;10.87;;
8219;SDS011;4151;51.110;7.020;2023-05-10T12:25:16;22.73;;;11.60;;
8219;SDS011;4151;51.110;7.020;2023-05-10T12:30:19;30.27;;;10.37;;
8219;SDS011;4151;51.110;7.020;2023-05-10T12:32:48;25.73;;;11.20;;
8219;SDS011;4151;51.110;7.020;2023-05-10T12:35:13;20.83;;;10.37;;
8219;SDS011;4151;51.110;7.020;2023-05-10T12:37:40;23.03;;;12.10;;
8219;SDS011;4151;51.110;7.020;2023-05-10T12:40:06;23.10;;;12.33;;
8219;SDS011;4151;51.110;7.020;2023-05-10T12:42:34;23.93;;;12.43;;
8219;SDS011;4151;51.110;7.020;2023-05-10T12:45:00;27.80;;;13.20;;
8219;SDS011;4151;51.110;7.020;2023-05-10T12:47:27;19.50;;;10.30;;
8219;SDS011;4151;51.110;7.020;2023-05-10T12:49:53;20.53;;;10.90;;
8219;SDS011;4151;51.110;7.020;2023-05-10T12:52:18;20.60;;;10.90;;
8219;SDS011;4151;51.110;7.020;2023-05-10T12:54:44;19.10;;;9.60;;
8219;SDS011;4151;51.110;7.020;2023-05-10T12:57:10;16.53;;;10.13;;
8219;SDS011;4151;51.110;7.020;2023-05-10T12:59:36;15.07;;;9.70;;
8219;SDS011;4151;51.110;7.020;2023-05-10T13:02:01;18.63;;;9.60;;
8219;SDS011;4151;51.110;7.020;2023-05-10T13:04:27;18.00;;;10.13;;
8219;SDS011;4151;51.110;7.020;2023-05-10T13:06:52;16.23;;;9.50;;
8219;SDS011;4151;51.110;7.020;2023-05-10T13:09:20;21.63;;;10.13;;
8219;SDS011;4151;51.110;7.020;2023-05-10T13:11:46;15.60;;;8.60;;
8219;SDS011;4151;51.110;7.020;2023-05-10T13:14:12;17.30;;;9.90;;
8219;SDS011;4151;51.110;7.020;2023-05-10T13:16:39;16.73;;;10.87;;
8219;SDS011;4151;51.110;7.020;2023-05-10T13:19:04;14.43;;;9.83;;
8219;SDS011;4151;51.110;7.020;2023-05-10T13:21:30;16.23;;;8.43;;
8219;SDS011;4151;51.110;7.020;2023-05-10T13:23:56;22.80;;;10.70;;
8219;SDS011;4151;51.110;7.020;2023-05-10T13:26:21;22.50;;;11.50;;
8219;SDS011;4151;51.110;7.020;2023-05-10T13:28:47;16.03;;;9.90;;
8219;SDS011;4151;51.110;7.020;2023-05-10T13:31:13;20.70;;;11.53;;
8219;SDS011;4151;51.110;7.020;2023-05-10T13:33:39;21.37;;;11.80;;
8219;SDS011;4151;51.110;7.020;2023-05-10T13:36:05;23.90;;;12.50;;
8219;SDS011;4151;51.110;7.020;2023-05-10T13:38:31;26.53;;;13.53;;
8219;SDS011;4151;51.110;7.020;2023-05-10T13:40:57;28.60;;;14.77;;
8219;SDS011;4151;51.110;7.020;2023-05-10T13:43:23;25.30;;;13.90;;
8219;SDS011;4151;51.110;7.020;2023-05-10T13:45:49;25.07;;;13.77;;
8219;SDS011;4151;51.110;7.020;2023-05-10T13:48:14;29.73;;;14.50;;
8219;SDS011;4151;51.110;7.020;2023-05-10T13:50:41;29.30;;;13.97;;
8219;SDS011;4151;51.110;7.020;2023-05-10T13:53:06;22.83;;;12.77;;
8219;SDS011;4151;51.110;7.020;2023-05-10T13:55:32;26.87;;;14.40;;
8219;SDS011;4151;51.110;7.020;2023-05-10T13:57:58;26.07;;;13.63;;
8219;SDS011;4151;51.110;7.020;2023-05-10T14:00:24;29.73;;;14.97;;
8219;SDS011;4151;51.110;7.020;2023-05-10T14:02:49;27.47;;;17.00;;
8219;SDS011;4151;51.110;7.020;2023-05-10T14:05:15;27.90;;;15.17;;
8219;SDS011;4151;51.110;7.020;2023-05-10T14:07:40;24.33;;;14.43;;
8219;SDS011;4151;51.110;7.020;2023-05-10T14:10:06;21.77;;;13.00;;
8219;SDS011;4151;51.110;7.020;2023-05-10T14:12:32;23.23;;;12.93;;
8219;SDS011;4151;51.110;7.020;2023-05-10T14:14:57;30.70;;;15.30;;
8219;SDS011;4151;51.110;7.020;2023-05-10T14:17:23;23.07;;;12.83;;
8219;SDS011;4151;51.110;7.020;2023-05-10T14:19:48;26.00;;;12.70;;
8219;SDS011;4151;51.110;7.020;2023-05-10T14:22:14;22.30;;;14.40;;
8219;SDS011;4151;51.110;7.020;2023-05-10T14:24:40;24.10;;;13.00;;
8219;SDS011;4151;51.110;7.020;2023-05-10T14:27:05;20.80;;;12.97;;
8219;SDS011;4151;51.110;7.020;2023-05-10T14:29:31;21.93;;;12.10;;
8219;SDS011;4151;51.110;7.020;2023-05-10T14:31:57;23.20;;;13.97;;
8219;SDS011;4151;51.110;7.020;2023-05-10T14:34:23;20.10;;;13.00;;
8219;SDS011;4151;51.110;7.020;2023-05-10T14:36:48;25.37;;;13.70;;
8219;SDS011;4151;51.110;7.020;2023-05-10T14:39:14;22.00;;;13.70;;
8219;SDS011;4151;51.110;7.020;2023-05-10T14:41:40;25.43;;;12.87;;
8219;SDS011;4151;51.110;7.020;2023-05-10T14:44:07;16.17;;;11.33;;
8219;SDS011;4151;51.110;7.020;2023-05-10T14:46:33;21.53;;;12.40;;
8219;SDS011;4151;51.110;7.020;2023-05-10T14:48:59;24.43;;;11.60;;
8219;SDS011;4151;51.110;7.020;2023-05-10T14:51:24;18.40;;;10.70;;
8219;SDS011;4151;51.110;7.020;2023-05-10T14:53:50;20.10;;;11.23;;
8219;SDS011;4151;51.110;7.020;2023-05-10T14:56:15;18.17;;;11.07;;
8219;SDS011;4151;51.110;7.020;2023-05-10T14:58:41;17.13;;;9.80;;
8219;SDS011;4151;51.110;7.020;2023-05-10T15:01:07;16.50;;;9.80;;
8219;SDS011;4151;51.110;7.020;2023-05-10T15:03:32;19.47;;;9.70;;
8219;SDS011;4151;51.110;7.020;2023-05-10T15:05:58;19.70;;;8.63;;
8219;SDS011;4151;51.110;7.020;2023-05-10T15:08:23;19.90;;;9.13;;
8219;SDS011;4151;51.110;7.020;2023-05-10T15:10:52;21.00;;;9.67;;
8219;SDS011;4151;51.110;7.020;2023-05-10T15:13:20;14.77;;;8.20;;
8219;SDS011;4151;51.110;7.020;2023-05-10T15:15:45;14.97;;;8.00;;
8219;SDS011;4151;51.110;7.020;2023-05-10T15:18:11;13.37;;;8.30;;
8219;SDS011;4151;51.110;7.020;2023-05-10T15:20:37;15.40;;;8.50;;
8219;SDS011;4151;51.110;7.020;2023-05-10T15:23:02;13.37;;;7.33;;
8219;SDS011;4151;51.110;7.020;2023-05-10T15:25:28;12.20;;;6.50;;
8219;SDS011;4151;51.110;7.020;2023-05-10T15:27:53;9.20;;;5.60;;
8219;SDS011;4151;51.110;7.020;2023-05-10T15:30:20;13.30;;;6.40;;
8219;SDS011;4151;51.110;7.020;2023-05-10T15:32:45;8.70;;;5.87;;
8219;SDS011;4151;51.110;7.020;2023-05-10T15:35:11;16.60;;;6.00;;
8219;SDS011;4151;51.110;7.020;2023-05-10T15:37:37;6.63;;;4.67;;
8219;SDS011;4151;51.110;7.020;2023-05-10T15:40:03;9.77;;;5.47;;
8219;SDS011;4151;51.110;7.020;2023-05-10T15:42:29;9.97;;;5.30;;
8219;SDS011;4151;51.110;7.020;2023-05-10T15:44:55;13.90;;;5.20;;
8219;SDS011;4151;51.110;7.020;2023-05-10T15:47:21;6.60;;;5.20;;
8219;SDS011;4151;51.110;7.020;2023-05-10T15:49:46;7.97;;;5.43;;
8219;SDS011;4151;51.110;7.020;2023-05-10T15:52:12;8.40;;;5.60;;
8219;SDS011;4151;51.110;7.020;2023-05-10T15:54:38;9.60;;;5.70;;
8219;SDS011;4151;51.110;7.020;2023-05-10T15:57:03;9.73;;;6.60;;